sensor_id;sensor_type;location;lat;lon;timestamp;pressure;altitude;pressure_sealevel;temperature;humidity
30724;BME280;17473;52.286;20.930;2023-08-08T00:01:37;99348.63;;;16.73;86.29
30724;BME280;17473;52.286;20.930;2023-08-08T00:04:05;99345.16;;;16.68;86.56
30724;BME280;17473;52.286;20.930;2023-08-08T00:06:32;99352.19;;;16.72;85.83
30724;BME280;17473;52.286;20.930;2023-08-08T00:09:00;99354.06;;;16.59;85.51
30724;BME280;17473;52.286;20.930;2023-08-08T00:11:27;99360.28;;;16.63;85.37
30724;BME280;17473;52.286;20.930;2023-08-08T00:13:55;99364.78;;;16.56;84.27
30724;BME280;17473;52.286;20.930;2023-08-08T00:16:22;99362.94;;;16.61;83.26
30724;BME280;17473;52.286;20.930;2023-08-08T00:18:49;99376.25;;;16.66;82.32
30724;BME280;17473;52.286;20.930;2023-08-08T00:21:20;99379.78;;;16.68;81.47
30724;BME280;17473;52.286;20.930;2023-08-08T00:23:47;99376.34;;;16.52;81.71
30724;BME280;17473;52.286;20.930;2023-08-08T00:26:14;99379.91;;;16.52;81.42
30724;BME280;17473;52.286;20.930;2023-08-08T00:28:41;99385.19;;;16.57;80.52
30724;BME280;17473;52.286;20.930;2023-08-08T00:31:08;99386.00;;;16.67;79.70
30724;BME280;17473;52.286;20.930;2023-08-08T00:33:36;99383.44;;;16.50;79.67
30724;BME280;17473;52.286;20.930;2023-08-08T00:36:03;99376.38;;;16.42;79.65
30724;BME280;17473;52.286;20.930;2023-08-08T00:38:30;99385.25;;;16.46;79.21
30724;BME280;17473;52.286;20.930;2023-08-08T00:40:57;99384.41;;;16.41;79.95
30724;BME280;17473;52.286;20.930;2023-08-08T00:43:24;99394.19;;;16.34;79.19
30724;BME280;17473;52.286;20.930;2023-08-08T00:45:51;99393.28;;;16.43;79.13
30724;BME280;17473;52.286;20.930;2023-08-08T00:48:18;99395.00;;;16.50;77.70
30724;BME280;17473;52.286;20.930;2023-08-08T00:50:48;99396.84;;;16.40;76.87
30724;BME280;17473;52.286;20.930;2023-08-08T00:53:15;99401.31;;;16.31;77.43
30724;BME280;17473;52.286;20.930;2023-08-08T00:55:42;99408.41;;;16.35;76.87
30724;BME280;17473;52.286;20.930;2023-08-08T00:58:10;99410.22;;;16.25;77.36
30724;BME280;17473;52.286;20.930;2023-08-08T01:00:37;99415.53;;;16.25;77.59
30724;BME280;17473;52.286;20.930;2023-08-08T01:03:05;99414.69;;;16.20;77.93
30724;BME280;17473;52.286;20.930;2023-08-08T01:05:41;99419.16;;;16.16;77.91
30724;BME280;17473;52.286;20.930;2023-08-08T01:08:13;99418.25;;;16.16;78.31
30724;BME280;17473;52.286;20.930;2023-08-08T01:10:42;99420.00;;;16.24;77.61
30724;BME280;17473;52.286;20.930;2023-08-08T01:13:16;99420.88;;;16.31;77.79
30724;BME280;17473;52.286;20.930;2023-08-08T01:15:46;99421.78;;;16.19;78.58
30724;BME280;17473;52.286;20.930;2023-08-08T01:18:13;99426.28;;;16.05;78.72
30724;BME280;17473;52.286;20.930;2023-08-08T01:20:43;99429.84;;;15.99;79.14
30724;BME280;17473;52.286;20.930;2023-08-08T01:23:32;99432.50;;;16.04;79.07
30724;BME280;17473;52.286;20.930;2023-08-08T01:26:02;99435.16;;;16.05;79.04
30724;BME280;17473;52.286;20.930;2023-08-08T01:28:29;99435.22;;;15.90;79.48
30724;BME280;17473;52.286;20.930;2023-08-08T01:30:56;99452.94;;;15.78;80.29
30724;BME280;17473;52.286;20.930;2023-08-08T01:33:23;99444.94;;;15.83;79.87
30724;BME280;17473;52.286;20.930;2023-08-08T01:35:56;99455.63;;;15.89;79.55
30724;BME280;17473;52.286;20.930;2023-08-08T01:38:43;99452.97;;;15.75;79.90
30724;BME280;17473;52.286;20.930;2023-08-08T01:41:11;99450.28;;;15.81;79.61
30724;BME280;17473;52.286;20.930;2023-08-08T01:43:39;99460.06;;;15.84;79.13
30724;BME280;17473;52.286;20.930;2023-08-08T01:46:07;99455.66;;;15.85;78.90
30724;BME280;17473;52.286;20.930;2023-08-08T01:48:35;99466.25;;;15.78;78.73
30724;BME280;17473;52.286;20.930;2023-08-08T01:51:02;99461.84;;;15.65;79.30
30724;BME280;17473;52.286;20.930;2023-08-08T01:53:29;99470.72;;;15.69;79.30
30724;BME280;17473;52.286;20.930;2023-08-08T01:55:57;99460.97;;;15.66;79.39
30724;BME280;17473;52.286;20.930;2023-08-08T01:58:24;99476.03;;;15.65;79.89
30724;BME280;17473;52.286;20.930;2023-08-08T02:00:51;99473.38;;;15.64;79.72
30724;BME280;17473;52.286;20.930;2023-08-08T02:03:18;99472.50;;;15.65;79.73
30724;BME280;17473;52.286;20.930;2023-08-08T02:05:45;99473.38;;;15.56;80.01
30724;BME280;17473;52.286;20.930;2023-08-08T02:08:12;99482.25;;;15.60;80.02
30724;BME280;17473;52.286;20.930;2023-08-08T02:10:40;99477.78;;;15.71;79.52
30724;BME280;17473;52.286;20.930;2023-08-08T02:13:07;99475.19;;;15.49;79.90
30724;BME280;17473;52.286;20.930;2023-08-08T02:15:34;99480.47;;;15.65;79.38
30724;BME280;17473;52.286;20.930;2023-08-08T02:18:01;99493.78;;;15.42;80.23
30724;BME280;17473;52.286;20.930;2023-08-08T02:20:30;99494.66;;;15.42;79.99
30724;BME280;17473;52.286;20.930;2023-08-08T02:22:58;99497.31;;;15.42;79.84
30724;BME280;17473;52.286;20.930;2023-08-08T02:25:25;99502.66;;;15.36;79.88
30724;BME280;17473;52.286;20.930;2023-08-08T02:27:52;99501.78;;;15.36;79.39
30724;BME280;17473;52.286;20.930;2023-08-08T02:30:19;99501.75;;;15.34;79.75
30724;BME280;17473;52.286;20.930;2023-08-08T02:32:46;99507.09;;;15.17;80.26
30724;BME280;17473;52.286;20.930;2023-08-08T02:35:13;99508.81;;;15.12;80.24
30724;BME280;17473;52.286;20.930;2023-08-08T02:37:40;99518.59;;;15.21;79.38
30724;BME280;17473;52.286;20.930;2023-08-08T02:40:08;99510.63;;;15.21;79.17
30724;BME280;17473;52.286;20.930;2023-08-08T02:42:36;99520.38;;;15.22;79.21
30724;BME280;17473;52.286;20.930;2023-08-08T02:45:04;99514.19;;;15.24;78.53
30724;BME280;17473;52.286;20.930;2023-08-08T02:47:31;99515.97;;;15.24;78.98
30724;BME280;17473;52.286;20.930;2023-08-08T02:49:58;99523.91;;;15.16;79.01
30724;BME280;17473;52.286;20.930;2023-08-08T02:52:25;99531.91;;;15.21;78.53
30724;BME280;17473;52.286;20.930;2023-08-08T02:54:52;99526.56;;;15.10;78.36
30724;BME280;17473;52.286;20.930;2023-08-08T02:57:19;99532.75;;;15.06;78.47
30724;BME280;17473;52.286;20.930;2023-08-08T02:59:46;99530.09;;;15.04;78.17
30724;BME280;17473;52.286;20.930;2023-08-08T03:02:14;99537.19;;;15.07;77.67
30724;BME280;17473;52.286;20.930;2023-08-08T03:04:41;99541.59;;;15.06;77.57
30724;BME280;17473;52.286;20.930;2023-08-08T03:07:08;99548.72;;;15.04;77.43
30724;BME280;17473;52.286;20.930;2023-08-08T03:09:35;99543.38;;;15.07;77.79
30724;BME280;17473;52.286;20.930;2023-08-08T03:12:03;99545.16;;;15.03;77.13
30724;BME280;17473;52.286;20.930;2023-08-08T03:14:30;99552.28;;;15.12;77.52
30724;BME280;17473;52.286;20.930;2023-08-08T03:16:57;99561.13;;;15.10;76.92
30724;BME280;17473;52.286;20.930;2023-08-08T03:19:25;99556.66;;;15.01;77.18
30724;BME280;17473;52.286;20.930;2023-08-08T03:21:53;99560.22;;;15.05;77.27
30724;BME280;17473;52.286;20.930;2023-08-08T03:24:20;99567.31;;;15.01;76.86
30724;BME280;17473;52.286;20.930;2023-08-08T03:26:47;99562.88;;;15.00;76.88
30724;BME280;17473;52.286;20.930;2023-08-08T03:29:14;99569.94;;;14.96;76.76
30724;BME280;17473;52.286;20.930;2023-08-08T03:31:41;99569.06;;;15.02;77.05
30724;BME280;17473;52.286;20.930;2023-08-08T03:34:08;99572.66;;;15.13;76.71
30724;BME280;17473;52.286;20.930;2023-08-08T03:36:35;99576.22;;;15.22;75.54
30724;BME280;17473;52.286;20.930;2023-08-08T03:39:02;99583.25;;;15.01;76.38
30724;BME280;17473;52.286;20.930;2023-08-08T03:41:30;99585.06;;;15.05;76.24
30724;BME280;17473;52.286;20.930;2023-08-08T03:43:57;99578.84;;;15.09;76.15
30724;BME280;17473;52.286;20.930;2023-08-08T03:46:24;99584.19;;;15.12;76.00
30724;BME280;17473;52.286;20.930;2023-08-08T03:48:52;99585.03;;;15.13;75.91
30724;BME280;17473;52.286;20.930;2023-08-08T03:51:20;99594.84;;;15.29;75.01
30724;BME280;17473;52.286;20.930;2023-08-08T03:53:47;99605.50;;;15.37;74.79
30724;BME280;17473;52.286;20.930;2023-08-08T03:56:14;99602.81;;;15.34;74.78
30724;BME280;17473;52.286;20.930;2023-08-08T03:58:41;99610.78;;;15.29;74.69
30724;BME280;17473;52.286;20.930;2023-08-08T04:01:08;99616.13;;;15.48;73.73
30724;BME280;17473;52.286;20.930;2023-08-08T04:03:36;99621.47;;;15.45;73.93
30724;BME280;17473;52.286;20.930;2023-08-08T04:06:04;99625.94;;;15.77;72.75
30724;BME280;17473;52.286;20.930;2023-08-08T04:08:31;99624.19;;;16.13;71.47
30724;BME280;17473;52.286;20.930;2023-08-08T04:10:58;99633.00;;;16.41;69.67
30724;BME280;17473;52.286;20.930;2023-08-08T04:13:25;99637.50;;;16.27;70.10
30724;BME280;17473;52.286;20.930;2023-08-08T04:15:53;99632.00;;;16.81;68.20
30724;BME280;17473;52.286;20.930;2023-08-08T04:18:20;99630.97;;;19.20;59.21
30724;BME280;17473;52.286;20.930;2023-08-08T04:20:47;99627.38;;;19.85;55.95
30724;BME280;17473;52.286;20.930;2023-08-08T04:23:14;99641.88;;;20.75;53.97
30724;BME280;17473;52.286;20.930;2023-08-08T04:25:41;99636.91;;;22.53;48.60
30724;BME280;17473;52.286;20.930;2023-08-08T04:28:08;99648.50;;;24.33;43.79
30724;BME280;17473;52.286;20.930;2023-08-08T04:30:36;99649.31;;;25.35;41.30
30724;BME280;17473;52.286;20.930;2023-08-08T04:33:03;99640.59;;;26.39;39.02
30724;BME280;17473;52.286;20.930;2023-08-08T04:35:30;99638.38;;;27.49;37.03
30724;BME280;17473;52.286;20.930;2023-08-08T04:37:57;99650.69;;;27.93;36.07
30724;BME280;17473;52.286;20.930;2023-08-08T04:40:24;99651.41;;;28.34;35.06
30724;BME280;17473;52.286;20.930;2023-08-08T04:42:52;99651.75;;;29.14;33.69
30724;BME280;17473;52.286;20.930;2023-08-08T04:45:19;99651.06;;;28.93;33.75
30724;BME280;17473;52.286;20.930;2023-08-08T04:50:32;99656.22;;;26.53;37.31
30724;BME280;17473;52.286;20.930;2023-08-08T04:52:59;99658.34;;;26.67;36.69
30724;BME280;17473;52.286;20.930;2023-08-08T04:55:26;99665.56;;;26.46;37.17
30724;BME280;17473;52.286;20.930;2023-08-08T04:57:55;99665.75;;;27.24;35.81
30724;BME280;17473;52.286;20.930;2023-08-08T05:00:22;99672.75;;;27.28;35.68
30724;BME280;17473;52.286;20.930;2023-08-08T05:02:49;99675.47;;;27.86;34.79
30724;BME280;17473;52.286;20.930;2023-08-08T05:05:16;99669.75;;;27.34;34.96
30724;BME280;17473;52.286;20.930;2023-08-08T05:07:43;99679.56;;;24.45;40.42
30724;BME280;17473;52.286;20.930;2023-08-08T05:10:11;99683.28;;;22.61;44.09
30724;BME280;17473;52.286;20.930;2023-08-08T05:12:38;99681.09;;;21.25;47.84
30724;BME280;17473;52.286;20.930;2023-08-08T05:15:06;99676.25;;;21.00;48.59
30724;BME280;17473;52.286;20.930;2023-08-08T05:17:33;99685.03;;;20.61;49.86
30724;BME280;17473;52.286;20.930;2023-08-08T05:20:00;99687.28;;;20.35;50.82
30724;BME280;17473;52.286;20.930;2023-08-08T05:22:27;99690.00;;;20.33;50.88
30724;BME280;17473;52.286;20.930;2023-08-08T05:24:54;99689.50;;;20.09;52.01
30724;BME280;17473;52.286;20.930;2023-08-08T05:27:21;99692.41;;;19.94;52.54
30724;BME280;17473;52.286;20.930;2023-08-08T05:29:48;99694.22;;;19.92;52.63
30724;BME280;17473;52.286;20.930;2023-08-08T05:32:16;99690.16;;;19.64;53.64
30724;BME280;17473;52.286;20.930;2023-08-08T05:34:43;99690.41;;;19.46;54.12
30724;BME280;17473;52.286;20.930;2023-08-08T05:37:10;99702.75;;;19.58;54.47
30724;BME280;17473;52.286;20.930;2023-08-08T05:39:44;99705.44;;;19.54;54.06
30724;BME280;17473;52.286;20.930;2023-08-08T05:42:11;99702.06;;;19.43;54.44
30724;BME280;17473;52.286;20.930;2023-08-08T05:44:39;99702.09;;;19.40;55.05
30724;BME280;17473;52.286;20.930;2023-08-08T05:47:08;99703.63;;;19.58;54.03
30724;BME280;17473;52.286;20.930;2023-08-08T05:49:35;99716.16;;;19.56;54.39
30724;BME280;17473;52.286;20.930;2023-08-08T05:52:03;99716.38;;;19.39;55.07
30724;BME280;17473;52.286;20.930;2023-08-08T05:54:30;99727.94;;;19.41;54.99
30724;BME280;17473;52.286;20.930;2023-08-08T05:56:57;99716.91;;;19.66;54.34
30724;BME280;17473;52.286;20.930;2023-08-08T05:59:25;99721.34;;;19.67;53.86
30724;BME280;17473;52.286;20.930;2023-08-08T06:01:52;99706.81;;;19.83;53.35
30724;BME280;17473;52.286;20.930;2023-08-08T06:04:19;99725.78;;;19.69;53.88
30724;BME280;17473;52.286;20.930;2023-08-08T06:06:46;99722.31;;;21.22;50.54
30724;BME280;17473;52.286;20.930;2023-08-08T06:09:16;99725.34;;;20.57;51.23
30724;BME280;17473;52.286;20.930;2023-08-08T06:11:44;99730.00;;;20.45;51.97
30724;BME280;17473;52.286;20.930;2023-08-08T06:14:11;99727.75;;;20.74;51.21
30724;BME280;17473;52.286;20.930;2023-08-08T06:16:38;99729.13;;;21.83;48.19
30724;BME280;17473;52.286;20.930;2023-08-08T06:19:05;99731.91;;;22.16;47.29
30724;BME280;17473;52.286;20.930;2023-08-08T06:21:33;99735.41;;;22.19;46.52
30724;BME280;17473;52.286;20.930;2023-08-08T06:24:00;99742.09;;;21.64;47.64
30724;BME280;17473;52.286;20.930;2023-08-08T06:26:27;99743.41;;;21.85;47.05
30724;BME280;17473;52.286;20.930;2023-08-08T06:28:54;99749.66;;;22.25;46.63
30724;BME280;17473;52.286;20.930;2023-08-08T06:31:21;99747.50;;;22.75;45.00
30724;BME280;17473;52.286;20.930;2023-08-08T06:33:49;99745.19;;;21.84;46.84
30724;BME280;17473;52.286;20.930;2023-08-08T06:36:16;99746.22;;;21.79;47.41
30724;BME280;17473;52.286;20.930;2023-08-08T06:38:43;99753.88;;;21.55;46.93
30724;BME280;17473;52.286;20.930;2023-08-08T06:41:10;99753.72;;;20.69;49.11
30724;BME280;17473;52.286;20.930;2023-08-08T06:43:38;99753.06;;;20.56;49.43
30724;BME280;17473;52.286;20.930;2023-08-08T06:46:05;99752.75;;;20.20;50.52
30724;BME280;17473;52.286;20.930;2023-08-08T06:48:32;99748.44;;;20.11;51.24
30724;BME280;17473;52.286;20.930;2023-08-08T06:51:00;99751.28;;;19.98;51.25
30724;BME280;17473;52.286;20.930;2023-08-08T06:53:27;99760.00;;;20.13;50.84
30724;BME280;17473;52.286;20.930;2023-08-08T06:55:54;99765.13;;;21.30;48.12
30724;BME280;17473;52.286;20.930;2023-08-08T06:58:21;99766.22;;;21.65;47.26
30724;BME280;17473;52.286;20.930;2023-08-08T07:00:49;99756.22;;;22.13;45.94
30724;BME280;17473;52.286;20.930;2023-08-08T07:03:17;99762.34;;;21.79;46.11
30724;BME280;17473;52.286;20.930;2023-08-08T07:05:44;99761.16;;;22.30;45.08
30724;BME280;17473;52.286;20.930;2023-08-08T07:08:11;99763.19;;;22.58;44.56
30724;BME280;17473;52.286;20.930;2023-08-08T07:10:38;99759.38;;;22.29;44.61
30724;BME280;17473;52.286;20.930;2023-08-08T07:13:05;99763.69;;;22.74;44.54
30724;BME280;17473;52.286;20.930;2023-08-08T07:15:33;99760.03;;;23.09;43.39
30724;BME280;17473;52.286;20.930;2023-08-08T07:18:00;99750.72;;;23.54;42.73
30724;BME280;17473;52.286;20.930;2023-08-08T07:20:27;99763.22;;;23.57;42.90
30724;BME280;17473;52.286;20.930;2023-08-08T07:22:55;99764.06;;;23.59;42.73
30724;BME280;17473;52.286;20.930;2023-08-08T07:25:22;99764.06;;;23.59;42.27
30724;BME280;17473;52.286;20.930;2023-08-08T07:27:49;99762.66;;;24.34;40.84
30724;BME280;17473;52.286;20.930;2023-08-08T07:30:16;99766.47;;;23.68;41.91
30724;BME280;17473;52.286;20.930;2023-08-08T07:32:44;99757.97;;;23.21;42.03
30724;BME280;17473;52.286;20.930;2023-08-08T07:35:11;99778.00;;;22.76;43.15
30724;BME280;17473;52.286;20.930;2023-08-08T07:37:38;99768.56;;;22.58;43.48
30724;BME280;17473;52.286;20.930;2023-08-08T07:40:16;99767.59;;;21.85;44.75
30724;BME280;17473;52.286;20.930;2023-08-08T07:42:47;99774.28;;;22.06;44.05
30724;BME280;17473;52.286;20.930;2023-08-08T07:45:15;99774.94;;;21.77;44.91
30724;BME280;17473;52.286;20.930;2023-08-08T07:47:43;99774.34;;;22.03;43.99
30724;BME280;17473;52.286;20.930;2023-08-08T07:50:10;99773.16;;;22.15;44.14
30724;BME280;17473;52.286;20.930;2023-08-08T07:52:38;99779.50;;;22.12;44.45
30724;BME280;17473;52.286;20.930;2023-08-08T07:55:06;99768.59;;;21.79;44.88
30724;BME280;17473;52.286;20.930;2023-08-08T07:57:33;99768.00;;;21.66;45.02
30724;BME280;17473;52.286;20.930;2023-08-08T08:00:04;99763.78;;;21.95;45.08
30724;BME280;17473;52.286;20.930;2023-08-08T08:02:36;99765.44;;;22.39;44.05
30724;BME280;17473;52.286;20.930;2023-08-08T08:05:04;99771.94;;;23.65;41.43
30724;BME280;17473;52.286;20.930;2023-08-08T08:07:36;99761.09;;;24.53;40.06
30724;BME280;17473;52.286;20.930;2023-08-08T08:10:08;99772.44;;;26.14;37.53
30724;BME280;17473;52.286;20.930;2023-08-08T08:12:36;99773.28;;;27.01;35.91
30724;BME280;17473;52.286;20.930;2023-08-08T08:15:04;99776.81;;;27.24;34.54
30724;BME280;17473;52.286;20.930;2023-08-08T08:17:31;99773.31;;;27.41;34.19
30724;BME280;17473;52.286;20.930;2023-08-08T08:19:59;99772.88;;;26.90;34.69
30724;BME280;17473;52.286;20.930;2023-08-08T08:22:26;99777.22;;;27.15;34.66
30724;BME280;17473;52.286;20.930;2023-08-08T08:24:53;99771.41;;;27.83;33.37
30724;BME280;17473;52.286;20.930;2023-08-08T08:27:20;99770.78;;;27.78;33.13
30724;BME280;17473;52.286;20.930;2023-08-08T08:29:47;99767.91;;;28.00;33.07
30724;BME280;17473;52.286;20.930;2023-08-08T08:32:15;99770.25;;;27.89;33.41
30724;BME280;17473;52.286;20.930;2023-08-08T08:34:42;99775.06;;;28.57;33.06
30724;BME280;17473;52.286;20.930;2023-08-08T08:37:11;99778.41;;;28.81;32.24
30724;BME280;17473;52.286;20.930;2023-08-08T08:39:38;99770.28;;;28.45;31.94
30724;BME280;17473;52.286;20.930;2023-08-08T08:42:06;99776.50;;;28.83;31.91
30724;BME280;17473;52.286;20.930;2023-08-08T08:44:34;99776.41;;;29.38;31.93
30724;BME280;17473;52.286;20.930;2023-08-08T08:47:04;99775.91;;;29.47;31.46
30724;BME280;17473;52.286;20.930;2023-08-08T08:49:39;99771.50;;;29.27;30.86
30724;BME280;17473;52.286;20.930;2023-08-08T08:52:08;99768.50;;;28.80;32.24
30724;BME280;17473;52.286;20.930;2023-08-08T08:54:36;99789.97;;;29.20;31.27
30724;BME280;17473;52.286;20.930;2023-08-08T08:57:04;99776.59;;;28.08;31.66
30724;BME280;17473;52.286;20.930;2023-08-08T08:59:33;99773.16;;;28.03;32.33
30724;BME280;17473;52.286;20.930;2023-08-08T09:02:00;99780.13;;;27.71;31.88
30724;BME280;17473;52.286;20.930;2023-08-08T09:04:29;99782.09;;;27.07;33.48
30724;BME280;17473;52.286;20.930;2023-08-08T09:06:57;99777.91;;;26.56;34.21
30724;BME280;17473;52.286;20.930;2023-08-08T09:09:25;99781.06;;;26.89;33.35
30724;BME280;17473;52.286;20.930;2023-08-08T09:11:54;99791.50;;;26.98;33.87
30724;BME280;17473;52.286;20.930;2023-08-08T09:14:26;99799.69;;;26.96;33.58
30724;BME280;17473;52.286;20.930;2023-08-08T09:16:54;99794.28;;;26.96;33.26
30724;BME280;17473;52.286;20.930;2023-08-08T09:19:22;99791.56;;;26.96;34.04
30724;BME280;17473;52.286;20.930;2023-08-08T09:21:51;99774.44;;;26.53;33.36
30724;BME280;17473;52.286;20.930;2023-08-08T09:24:19;99788.09;;;26.50;33.19
30724;BME280;17473;52.286;20.930;2023-08-08T09:30:46;99789.53;;;25.90;33.94
30724;BME280;17473;52.286;20.930;2023-08-08T09:33:14;99791.28;;;25.19;33.92
30724;BME280;17473;52.286;20.930;2023-08-08T09:35:41;99792.84;;;25.24;34.54
30724;BME280;17473;52.286;20.930;2023-08-08T09:38:08;99810.03;;;25.23;35.08
30724;BME280;17473;52.286;20.930;2023-08-08T09:40:36;99807.00;;;24.52;35.47
30724;BME280;17473;52.286;20.930;2023-08-08T09:43:07;99803.34;;;24.54;35.84
30724;BME280;17473;52.286;20.930;2023-08-08T09:45:39;99796.06;;;24.85;36.33
30724;BME280;17473;52.286;20.930;2023-08-08T09:52:37;99805.25;;;25.30;34.14
30724;BME280;17473;52.286;20.930;2023-08-08T09:55:07;99805.09;;;25.35;33.99
30724;BME280;17473;52.286;20.930;2023-08-08T09:57:35;99796.16;;;25.58;33.54
30724;BME280;17473;52.286;20.930;2023-08-08T10:00:05;99806.97;;;26.05;33.24
30724;BME280;17473;52.286;20.930;2023-08-08T10:02:37;99801.19;;;26.38;32.80
30724;BME280;17473;52.286;20.930;2023-08-08T10:05:04;99791.66;;;26.28;32.51
30724;BME280;17473;52.286;20.930;2023-08-08T10:07:32;99791.63;;;26.30;32.73
30724;BME280;17473;52.286;20.930;2023-08-08T10:09:59;99788.53;;;26.61;32.25
30724;BME280;17473;52.286;20.930;2023-08-08T10:12:26;99791.66;;;26.50;33.05
30724;BME280;17473;52.286;20.930;2023-08-08T10:14:54;99788.34;;;26.21;32.18
30724;BME280;17473;52.286;20.930;2023-08-08T10:17:21;99792.94;;;26.19;32.45
30724;BME280;17473;52.286;20.930;2023-08-08T10:19:54;99785.50;;;26.24;32.49
30724;BME280;17473;52.286;20.930;2023-08-08T10:22:24;99793.69;;;25.75;31.77
30724;BME280;17473;52.286;20.930;2023-08-08T10:24:53;99789.81;;;25.83;31.10
30724;BME280;17473;52.286;20.930;2023-08-08T10:27:32;99789.13;;;25.77;31.84
30724;BME280;17473;52.286;20.930;2023-08-08T10:30:07;99791.13;;;25.72;32.11
30724;BME280;17473;52.286;20.930;2023-08-08T10:32:50;99792.88;;;24.99;32.41
30724;BME280;17473;52.286;20.930;2023-08-08T10:35:19;99798.63;;;24.88;32.64
30724;BME280;17473;52.286;20.930;2023-08-08T10:37:53;99794.13;;;25.41;32.77
30724;BME280;17473;52.286;20.930;2023-08-08T10:40:21;99794.41;;;25.57;32.56
30724;BME280;17473;52.286;20.930;2023-08-08T10:42:48;99795.81;;;25.43;31.55
30724;BME280;17473;52.286;20.930;2023-08-08T10:45:16;99800.19;;;25.71;31.40
30724;BME280;17473;52.286;20.930;2023-08-08T10:47:44;99810.63;;;25.57;31.23
30724;BME280;17473;52.286;20.930;2023-08-08T10:50:15;99808.56;;;25.40;30.90
30724;BME280;17473;52.286;20.930;2023-08-08T10:55:33;99791.72;;;25.81;31.55
30724;BME280;17473;52.286;20.930;2023-08-08T10:58:10;99793.88;;;25.94;31.27
30724;BME280;17473;52.286;20.930;2023-08-08T11:00:39;99803.34;;;25.83;31.21
30724;BME280;17473;52.286;20.930;2023-08-08T11:03:07;99791.16;;;26.18;30.18
30724;BME280;17473;52.286;20.930;2023-08-08T11:05:38;99805.06;;;25.11;32.00
30724;BME280;17473;52.286;20.930;2023-08-08T11:08:06;99807.91;;;25.06;32.42
30724;BME280;17473;52.286;20.930;2023-08-08T11:10:39;99797.69;;;25.65;30.61
30724;BME280;17473;52.286;20.930;2023-08-08T11:13:08;99808.25;;;25.22;30.93
30724;BME280;17473;52.286;20.930;2023-08-08T11:15:36;99801.25;;;25.16;31.11
30724;BME280;17473;52.286;20.930;2023-08-08T11:18:06;99818.66;;;25.08;31.10
30724;BME280;17473;52.286;20.930;2023-08-08T11:20:35;99810.97;;;25.22;31.36
30724;BME280;17473;52.286;20.930;2023-08-08T11:23:03;99817.06;;;25.27;31.35
30724;BME280;17473;52.286;20.930;2023-08-08T11:25:32;99813.81;;;25.18;31.66
30724;BME280;17473;52.286;20.930;2023-08-08T11:27:59;99800.75;;;25.30;30.63
30724;BME280;17473;52.286;20.930;2023-08-08T11:30:30;99831.31;;;25.06;30.69
30724;BME280;17473;52.286;20.930;2023-08-08T11:33:00;99824.22;;;24.76;30.82
30724;BME280;17473;52.286;20.930;2023-08-08T11:35:30;99833.22;;;24.20;31.80
30724;BME280;17473;52.286;20.930;2023-08-08T11:37:59;99825.03;;;24.23;32.12
30724;BME280;17473;52.286;20.930;2023-08-08T11:40:28;99821.69;;;24.15;31.74
30724;BME280;17473;52.286;20.930;2023-08-08T11:42:57;99820.97;;;24.38;32.29
30724;BME280;17473;52.286;20.930;2023-08-08T11:45:24;99822.88;;;24.61;32.10
30724;BME280;17473;52.286;20.930;2023-08-08T11:47:55;99828.16;;;24.93;32.46
30724;BME280;17473;52.286;20.930;2023-08-08T11:50:25;99829.91;;;25.21;31.64
30724;BME280;17473;52.286;20.930;2023-08-08T11:52:54;99822.19;;;25.35;31.11
30724;BME280;17473;52.286;20.930;2023-08-08T11:55:28;99822.00;;;25.41;31.23
30724;BME280;17473;52.286;20.930;2023-08-08T11:57:56;99829.69;;;25.27;31.09
30724;BME280;17473;52.286;20.930;2023-08-08T12:00:30;99826.03;;;25.03;30.67
30724;BME280;17473;52.286;20.930;2023-08-08T12:03:00;99820.31;;;25.12;31.49
30724;BME280;17473;52.286;20.930;2023-08-08T12:05:28;99825.22;;;25.00;31.40
30724;BME280;17473;52.286;20.930;2023-08-08T12:07:55;99827.81;;;24.77;30.74
30724;BME280;17473;52.286;20.930;2023-08-08T12:10:23;99826.69;;;24.84;31.09
30724;BME280;17473;52.286;20.930;2023-08-08T12:12:56;99832.81;;;25.14;30.69
30724;BME280;17473;52.286;20.930;2023-08-08T12:15:34;99830.91;;;25.18;29.90
30724;BME280;17473;52.286;20.930;2023-08-08T12:18:04;99832.28;;;24.78;30.33
30724;BME280;17473;52.286;20.930;2023-08-08T12:20:32;99828.00;;;24.71;30.26
30724;BME280;17473;52.286;20.930;2023-08-08T12:22:59;99844.44;;;24.34;31.07
30724;BME280;17473;52.286;20.930;2023-08-08T12:25:27;99841.59;;;24.11;31.32
30724;BME280;17473;52.286;20.930;2023-08-08T12:27:54;99846.75;;;23.87;31.80
30724;BME280;17473;52.286;20.930;2023-08-08T12:30:22;99847.97;;;23.76;32.24
30724;BME280;17473;52.286;20.930;2023-08-08T12:32:49;99853.13;;;23.84;32.55
30724;BME280;17473;52.286;20.930;2023-08-08T12:35:16;99846.91;;;23.82;32.59
30724;BME280;17473;52.286;20.930;2023-08-08T12:37:43;99836.81;;;24.20;32.40
30724;BME280;17473;52.286;20.930;2023-08-08T12:40:11;99837.25;;;24.35;32.08
30724;BME280;17473;52.286;20.930;2023-08-08T12:42:39;99823.16;;;24.53;32.15
30724;BME280;17473;52.286;20.930;2023-08-08T12:45:07;99839.72;;;24.41;32.33
30724;BME280;17473;52.286;20.930;2023-08-08T12:47:34;99836.47;;;24.30;32.12
30724;BME280;17473;52.286;20.930;2023-08-08T12:50:05;99842.25;;;24.47;31.38
30724;BME280;17473;52.286;20.930;2023-08-08T12:52:33;99850.16;;;24.23;31.94
30724;BME280;17473;52.286;20.930;2023-08-08T12:55:01;99843.84;;;23.96;32.37
30724;BME280;17473;52.286;20.930;2023-08-08T12:57:28;99842.66;;;24.05;31.76
30724;BME280;17473;52.286;20.930;2023-08-08T12:59:55;99852.03;;;23.90;31.83
30724;BME280;17473;52.286;20.930;2023-08-08T13:02:23;99856.91;;;23.77;31.88
30724;BME280;17473;52.286;20.930;2023-08-08T13:04:50;99854.13;;;23.80;31.60
30724;BME280;17473;52.286;20.930;2023-08-08T13:07:17;99850.00;;;24.00;31.40
30724;BME280;17473;52.286;20.930;2023-08-08T13:09:44;99841.91;;;24.00;31.98